sensor_id;sensor_type;location;lat;lon;timestamp;P1;durP1;ratioP1;P2;durP2;ratioP2
31206;SDS011;17834;52.992;8.856;2022-11-20T00:00:10;22.40;;;10.63;;
31206;SDS011;17834;52.992;8.856;2022-11-20T00:02:36;21.33;;;9.63;;
31206;SDS011;17834;52.992;8.856;2022-11-20T00:05:03;23.23;;;10.38;;
31206;SDS011;17834;52.992;8.856;2022-11-20T00:07:29;24.77;;;11.75;;
31206;SDS011;17834;52.992;8.856;2022-11-20T00:09:55;23.77;;;11.23;;
31206;SDS011;17834;52.992;8.856;2022-11-20T00:12:21;23.85;;;11.43;;
31206;SDS011;17834;52.992;8.856;2022-11-20T00:14:47;19.83;;;10.38;;
31206;SDS011;17834;52.992;8.856;2022-11-20T00:17:13;23.65;;;10.38;;
31206;SDS011;17834;52.992;8.856;2022-11-20T00:19:39;23.10;;;10.27;;
31206;SDS011;17834;52.992;8.856;2022-11-20T00:22:05;21.50;;;9.95;;
31206;SDS011;17834;52.992;8.856;2022-11-20T00:24:31;23.00;;;10.85;;
31206;SDS011;17834;52.992;8.856;2022-11-20T00:26:57;23.38;;;12.13;;
31206;SDS011;17834;52.992;8.856;2022-11-20T00:29:23;23.85;;;10.57;;
31206;SDS011;17834;52.992;8.856;2022-11-20T00:31:49;26.42;;;10.63;;
31206;SDS011;17834;52.992;8.856;2022-11-20T00:34:15;21.33;;;10.50;;
31206;SDS011;17834;52.992;8.856;2022-11-20T00:36:41;18.30;;;9.55;;
31206;SDS011;17834;52.992;8.856;2022-11-20T00:39:07;20.95;;;9.88;;
31206;SDS011;17834;52.992;8.856;2022-11-20T00:41:33;24.98;;;11.27;;
31206;SDS011;17834;52.992;8.856;2022-11-20T00:43:59;20.73;;;10.35;;
31206;SDS011;17834;52.992;8.856;2022-11-20T00:46:27;21.67;;;9.50;;
31206;SDS011;17834;52.992;8.856;2022-11-20T00:48:53;26.23;;;11.32;;
31206;SDS011;17834;52.992;8.856;2022-11-20T00:51:20;23.48;;;9.77;;
31206;SDS011;17834;52.992;8.856;2022-11-20T00:53:47;21.98;;;10.23;;
31206;SDS011;17834;52.992;8.856;2022-11-20T00:56:14;19.20;;;10.27;;
31206;SDS011;17834;52.992;8.856;2022-11-20T00:58:41;21.33;;;10.15;;
31206;SDS011;17834;52.992;8.856;2022-11-20T01:01:08;19.90;;;9.35;;
31206;SDS011;17834;52.992;8.856;2022-11-20T01:03:35;17.80;;;9.40;;
31206;SDS011;17834;52.992;8.856;2022-11-20T01:06:06;19.83;;;10.20;;
31206;SDS011;17834;52.992;8.856;2022-11-20T01:08:32;21.42;;;10.63;;
31206;SDS011;17834;52.992;8.856;2022-11-20T01:11:03;20.92;;;10.90;;
31206;SDS011;17834;52.992;8.856;2022-11-20T01:13:29;17.88;;;9.15;;
31206;SDS011;17834;52.992;8.856;2022-11-20T01:16:06;19.80;;;9.93;;
31206;SDS011;17834;52.992;8.856;2022-11-20T01:18:33;20.15;;;9.68;;
31206;SDS011;17834;52.992;8.856;2022-11-20T01:21:06;21.85;;;9.90;;
31206;SDS011;17834;52.992;8.856;2022-11-20T01:23:33;21.63;;;10.50;;
31206;SDS011;17834;52.992;8.856;2022-11-20T01:26:01;21.42;;;10.93;;
31206;SDS011;17834;52.992;8.856;2022-11-20T01:28:27;21.40;;;9.70;;
31206;SDS011;17834;52.992;8.856;2022-11-20T01:30:53;20.98;;;10.57;;
31206;SDS011;17834;52.992;8.856;2022-11-20T01:33:19;20.88;;;10.60;;
31206;SDS011;17834;52.992;8.856;2022-11-20T01:35:45;19.92;;;9.98;;
31206;SDS011;17834;52.992;8.856;2022-11-20T01:38:11;22.90;;;10.52;;
31206;SDS011;17834;52.992;8.856;2022-11-20T01:40:38;21.52;;;10.00;;
31206;SDS011;17834;52.992;8.856;2022-11-20T01:43:14;17.23;;;9.38;;
31206;SDS011;17834;52.992;8.856;2022-11-20T01:46:01;26.20;;;10.95;;
31206;SDS011;17834;52.992;8.856;2022-11-20T01:48:30;20.27;;;10.05;;
31206;SDS011;17834;52.992;8.856;2022-11-20T01:50:57;25.30;;;11.10;;
31206;SDS011;17834;52.992;8.856;2022-11-20T01:53:25;19.30;;;10.35;;
31206;SDS011;17834;52.992;8.856;2022-11-20T01:55:53;18.83;;;9.73;;
31206;SDS011;17834;52.992;8.856;2022-11-20T01:58:22;20.50;;;9.93;;
31206;SDS011;17834;52.992;8.856;2022-11-20T02:00:49;20.08;;;10.65;;
31206;SDS011;17834;52.992;8.856;2022-11-20T02:03:16;20.23;;;10.85;;
31206;SDS011;17834;52.992;8.856;2022-11-20T02:08:08;18.75;;;9.88;;
31206;SDS011;17834;52.992;8.856;2022-11-20T02:10:34;21.77;;;10.25;;
31206;SDS011;17834;52.992;8.856;2022-11-20T02:13:00;24.92;;;10.45;;
31206;SDS011;17834;52.992;8.856;2022-11-20T02:15:46;21.27;;;9.90;;
31206;SDS011;17834;52.992;8.856;2022-11-20T02:18:13;20.50;;;10.43;;
31206;SDS011;17834;52.992;8.856;2022-11-20T02:20:41;24.48;;;10.18;;
31206;SDS011;17834;52.992;8.856;2022-11-20T02:25:37;20.42;;;10.20;;
31206;SDS011;17834;52.992;8.856;2022-11-20T02:28:04;30.02;;;11.05;;
31206;SDS011;17834;52.992;8.856;2022-11-20T02:30:30;17.98;;;10.02;;
31206;SDS011;17834;52.992;8.856;2022-11-20T02:32:57;25.63;;;10.32;;
31206;SDS011;17834;52.992;8.856;2022-11-20T02:37:50;21.58;;;10.50;;
31206;SDS011;17834;52.992;8.856;2022-11-20T02:40:18;24.38;;;11.50;;
31206;SDS011;17834;52.992;8.856;2022-11-20T02:42:44;24.67;;;10.35;;
31206;SDS011;17834;52.992;8.856;2022-11-20T02:45:10;20.38;;;9.77;;
31206;SDS011;17834;52.992;8.856;2022-11-20T02:47:37;18.67;;;9.20;;
31206;SDS011;17834;52.992;8.856;2022-11-20T02:50:03;22.20;;;10.48;;
31206;SDS011;17834;52.992;8.856;2022-11-20T02:52:30;23.60;;;10.77;;
31206;SDS011;17834;52.992;8.856;2022-11-20T02:54:56;21.65;;;10.30;;
31206;SDS011;17834;52.992;8.856;2022-11-20T02:57:22;25.02;;;10.80;;
31206;SDS011;17834;52.992;8.856;2022-11-20T02:59:48;20.17;;;10.20;;
31206;SDS011;17834;52.992;8.856;2022-11-20T03:02:14;17.45;;;9.80;;
31206;SDS011;17834;52.992;8.856;2022-11-20T03:04:41;20.30;;;9.63;;
31206;SDS011;17834;52.992;8.856;2022-11-20T03:07:07;19.40;;;9.48;;
31206;SDS011;17834;52.992;8.856;2022-11-20T03:09:33;18.65;;;9.05;;
31206;SDS011;17834;52.992;8.856;2022-11-20T03:11:59;19.48;;;9.40;;
31206;SDS011;17834;52.992;8.856;2022-11-20T03:14:25;17.95;;;9.07;;
31206;SDS011;17834;52.992;8.856;2022-11-20T03:16:51;20.48;;;9.50;;
31206;SDS011;17834;52.992;8.856;2022-11-20T03:19:17;21.85;;;9.45;;
31206;SDS011;17834;52.992;8.856;2022-11-20T03:21:43;21.50;;;9.30;;
31206;SDS011;17834;52.992;8.856;2022-11-20T03:24:09;20.45;;;9.00;;
31206;SDS011;17834;52.992;8.856;2022-11-20T03:26:35;17.70;;;9.55;;
31206;SDS011;17834;52.992;8.856;2022-11-20T03:29:02;18.42;;;8.90;;
31206;SDS011;17834;52.992;8.856;2022-11-20T03:31:29;15.20;;;8.45;;
31206;SDS011;17834;52.992;8.856;2022-11-20T03:33:56;15.00;;;8.50;;
31206;SDS011;17834;52.992;8.856;2022-11-20T03:36:25;18.63;;;8.93;;
31206;SDS011;17834;52.992;8.856;2022-11-20T03:38:52;17.58;;;8.73;;
31206;SDS011;17834;52.992;8.856;2022-11-20T03:41:23;19.65;;;8.70;;
31206;SDS011;17834;52.992;8.856;2022-11-20T03:43:50;14.73;;;8.05;;
31206;SDS011;17834;52.992;8.856;2022-11-20T03:46:16;18.67;;;8.23;;
31206;SDS011;17834;52.992;8.856;2022-11-20T03:48:42;15.57;;;9.10;;
31206;SDS011;17834;52.992;8.856;2022-11-20T03:53:45;18.10;;;8.77;;
31206;SDS011;17834;52.992;8.856;2022-11-20T03:56:11;18.05;;;8.43;;
31206;SDS011;17834;52.992;8.856;2022-11-20T03:58:38;17.60;;;8.63;;
31206;SDS011;17834;52.992;8.856;2022-11-20T04:01:11;18.35;;;8.80;;
31206;SDS011;17834;52.992;8.856;2022-11-20T04:03:38;16.20;;;8.80;;
31206;SDS011;17834;52.992;8.856;2022-11-20T04:06:04;15.50;;;8.30;;
31206;SDS011;17834;52.992;8.856;2022-11-20T04:08:31;16.35;;;8.18;;
31206;SDS011;17834;52.992;8.856;2022-11-20T04:11:07;17.38;;;7.95;;
31206;SDS011;17834;52.992;8.856;2022-11-20T04:13:33;17.75;;;7.10;;
31206;SDS011;17834;52.992;8.856;2022-11-20T04:15:59;16.67;;;8.18;;
31206;SDS011;17834;52.992;8.856;2022-11-20T04:18:25;19.10;;;8.95;;
31206;SDS011;17834;52.992;8.856;2022-11-20T04:20:52;19.95;;;9.13;;
31206;SDS011;17834;52.992;8.856;2022-11-20T04:23:18;17.73;;;8.73;;
31206;SDS011;17834;52.992;8.856;2022-11-20T04:25:44;17.38;;;8.65;;
31206;SDS011;17834;52.992;8.856;2022-11-20T04:28:10;18.00;;;8.60;;
31206;SDS011;17834;52.992;8.856;2022-11-20T04:30:36;15.88;;;8.40;;
31206;SDS011;17834;52.992;8.856;2022-11-20T04:33:02;17.30;;;8.57;;
31206;SDS011;17834;52.992;8.856;2022-11-20T04:35:28;15.55;;;8.00;;
31206;SDS011;17834;52.992;8.856;2022-11-20T04:37:54;16.25;;;7.78;;
31206;SDS011;17834;52.992;8.856;2022-11-20T04:40:20;16.92;;;7.53;;
31206;SDS011;17834;52.992;8.856;2022-11-20T04:42:46;17.38;;;8.23;;
31206;SDS011;17834;52.992;8.856;2022-11-20T04:45:12;16.42;;;8.45;;
31206;SDS011;17834;52.992;8.856;2022-11-20T04:47:38;15.82;;;8.00;;
31206;SDS011;17834;52.992;8.856;2022-11-20T04:50:04;16.25;;;7.60;;
31206;SDS011;17834;52.992;8.856;2022-11-20T04:52:31;14.05;;;7.35;;
31206;SDS011;17834;52.992;8.856;2022-11-20T04:54:57;16.30;;;7.45;;
31206;SDS011;17834;52.992;8.856;2022-11-20T04:57:23;13.32;;;7.70;;
31206;SDS011;17834;52.992;8.856;2022-11-20T04:59:49;16.05;;;7.10;;
31206;SDS011;17834;52.992;8.856;2022-11-20T05:02:15;16.67;;;8.32;;
31206;SDS011;17834;52.992;8.856;2022-11-20T05:04:41;14.50;;;7.25;;
31206;SDS011;17834;52.992;8.856;2022-11-20T05:07:07;18.17;;;7.07;;
31206;SDS011;17834;52.992;8.856;2022-11-20T05:09:33;19.23;;;8.57;;
31206;SDS011;17834;52.992;8.856;2022-11-20T05:12:00;14.02;;;7.30;;
31206;SDS011;17834;52.992;8.856;2022-11-20T05:14:26;19.58;;;7.32;;
31206;SDS011;17834;52.992;8.856;2022-11-20T05:16:52;18.63;;;7.68;;
31206;SDS011;17834;52.992;8.856;2022-11-20T05:19:18;16.00;;;7.13;;
31206;SDS011;17834;52.992;8.856;2022-11-20T05:21:44;14.48;;;7.18;;
31206;SDS011;17834;52.992;8.856;2022-11-20T05:24:10;16.20;;;7.57;;
31206;SDS011;17834;52.992;8.856;2022-11-20T05:26:36;15.23;;;7.97;;
31206;SDS011;17834;52.992;8.856;2022-11-20T05:29:02;13.73;;;6.88;;
31206;SDS011;17834;52.992;8.856;2022-11-20T05:31:28;13.20;;;7.43;;
31206;SDS011;17834;52.992;8.856;2022-11-20T05:33:55;13.40;;;7.05;;
31206;SDS011;17834;52.992;8.856;2022-11-20T05:36:21;16.17;;;7.60;;
31206;SDS011;17834;52.992;8.856;2022-11-20T05:38:47;16.13;;;7.32;;
31206;SDS011;17834;52.992;8.856;2022-11-20T05:41:15;13.32;;;7.97;;
31206;SDS011;17834;52.992;8.856;2022-11-20T05:43:42;13.27;;;6.80;;
31206;SDS011;17834;52.992;8.856;2022-11-20T05:46:09;14.18;;;6.72;;
31206;SDS011;17834;52.992;8.856;2022-11-20T05:48:35;12.68;;;7.45;;
31206;SDS011;17834;52.992;8.856;2022-11-20T05:51:02;15.50;;;7.28;;
31206;SDS011;17834;52.992;8.856;2022-11-20T05:53:29;12.68;;;6.53;;
31206;SDS011;17834;52.992;8.856;2022-11-20T05:56:05;13.85;;;6.68;;
31206;SDS011;17834;52.992;8.856;2022-11-20T05:58:32;13.82;;;6.82;;
31206;SDS011;17834;52.992;8.856;2022-11-20T06:01:05;13.20;;;7.28;;
31206;SDS011;17834;52.992;8.856;2022-11-20T06:03:31;14.02;;;7.63;;
31206;SDS011;17834;52.992;8.856;2022-11-20T06:06:01;14.48;;;6.95;;
31206;SDS011;17834;52.992;8.856;2022-11-20T06:08:28;13.73;;;6.70;;
31206;SDS011;17834;52.992;8.856;2022-11-20T06:10:54;15.50;;;7.82;;
31206;SDS011;17834;52.992;8.856;2022-11-20T06:13:20;16.33;;;7.75;;
31206;SDS011;17834;52.992;8.856;2022-11-20T06:15:49;12.15;;;6.90;;
31206;SDS011;17834;52.992;8.856;2022-11-20T06:18:15;13.30;;;7.55;;
31206;SDS011;17834;52.992;8.856;2022-11-20T06:20:42;13.18;;;7.15;;
31206;SDS011;17834;52.992;8.856;2022-11-20T06:23:08;14.80;;;6.93;;
31206;SDS011;17834;52.992;8.856;2022-11-20T06:25:37;13.18;;;6.88;;
31206;SDS011;17834;52.992;8.856;2022-11-20T06:28:03;15.50;;;6.97;;
31206;SDS011;17834;52.992;8.856;2022-11-20T06:30:29;16.45;;;7.30;;
31206;SDS011;17834;52.992;8.856;2022-11-20T06:32:55;17.42;;;7.90;;
31206;SDS011;17834;52.992;8.856;2022-11-20T06:35:21;16.52;;;8.38;;
31206;SDS011;17834;52.992;8.856;2022-11-20T06:37:47;15.88;;;7.32;;
31206;SDS011;17834;52.992;8.856;2022-11-20T06:40:13;20.23;;;8.70;;
31206;SDS011;17834;52.992;8.856;2022-11-20T06:42:39;13.45;;;7.15;;
31206;SDS011;17834;52.992;8.856;2022-11-20T06:45:06;14.48;;;7.60;;
31206;SDS011;17834;52.992;8.856;2022-11-20T06:47:32;14.10;;;7.60;;
31206;SDS011;17834;52.992;8.856;2022-11-20T06:49:58;14.30;;;8.02;;
31206;SDS011;17834;52.992;8.856;2022-11-20T06:52:24;15.55;;;6.97;;
31206;SDS011;17834;52.992;8.856;2022-11-20T06:54:50;15.55;;;8.20;;
31206;SDS011;17834;52.992;8.856;2022-11-20T06:57:16;19.77;;;8.13;;
31206;SDS011;17834;52.992;8.856;2022-11-20T06:59:42;17.05;;;7.60;;
31206;SDS011;17834;52.992;8.856;2022-11-20T07:02:11;17.25;;;7.00;;
31206;SDS011;17834;52.992;8.856;2022-11-20T07:04:38;14.50;;;7.18;;
31206;SDS011;17834;52.992;8.856;2022-11-20T07:07:04;16.10;;;7.22;;
31206;SDS011;17834;52.992;8.856;2022-11-20T07:09:31;15.07;;;7.25;;
31206;SDS011;17834;52.992;8.856;2022-11-20T07:11:58;18.10;;;7.97;;
31206;SDS011;17834;52.992;8.856;2022-11-20T07:14:25;16.40;;;8.00;;
31206;SDS011;17834;52.992;8.856;2022-11-20T07:16:51;15.20;;;7.78;;
31206;SDS011;17834;52.992;8.856;2022-11-20T07:19:17;18.50;;;7.32;;
31206;SDS011;17834;52.992;8.856;2022-11-20T07:21:43;12.07;;;7.10;;
31206;SDS011;17834;52.992;8.856;2022-11-20T07:24:09;14.50;;;7.72;;
31206;SDS011;17834;52.992;8.856;2022-11-20T07:26:35;11.95;;;7.32;;
31206;SDS011;17834;52.992;8.856;2022-11-20T07:29:01;16.02;;;7.70;;
31206;SDS011;17834;52.992;8.856;2022-11-20T07:31:28;9.68;;;5.80;;
31206;SDS011;17834;52.992;8.856;2022-11-20T07:33:54;15.98;;;7.40;;
31206;SDS011;17834;52.992;8.856;2022-11-20T07:36:20;16.17;;;8.07;;
31206;SDS011;17834;52.992;8.856;2022-11-20T07:38:46;14.95;;;7.68;;
31206;SDS011;17834;52.992;8.856;2022-11-20T07:41:12;14.40;;;7.32;;
31206;SDS011;17834;52.992;8.856;2022-11-20T07:43:38;16.58;;;8.60;;
31206;SDS011;17834;52.992;8.856;2022-11-20T07:46:04;15.00;;;7.45;;
31206;SDS011;17834;52.992;8.856;2022-11-20T07:48:30;17.08;;;7.72;;
31206;SDS011;17834;52.992;8.856;2022-11-20T07:50:57;14.80;;;8.48;;
31206;SDS011;17834;52.992;8.856;2022-11-20T07:53:23;13.15;;;7.57;;
31206;SDS011;17834;52.992;8.856;2022-11-20T07:55:49;17.52;;;8.23;;
31206;SDS011;17834;52.992;8.856;2022-11-20T07:58:17;16.90;;;8.48;;
31206;SDS011;17834;52.992;8.856;2022-11-20T08:00:44;15.90;;;7.95;;
31206;SDS011;17834;52.992;8.856;2022-11-20T08:03:10;14.77;;;7.70;;
31206;SDS011;17834;52.992;8.856;2022-11-20T08:05:36;14.77;;;7.88;;
31206;SDS011;17834;52.992;8.856;2022-11-20T08:08:02;16.50;;;7.90;;
31206;SDS011;17834;52.992;8.856;2022-11-20T08:10:28;16.65;;;7.15;;
31206;SDS011;17834;52.992;8.856;2022-11-20T08:12:54;17.13;;;7.80;;
31206;SDS011;17834;52.992;8.856;2022-11-20T08:15:39;15.52;;;7.72;;
31206;SDS011;17834;52.992;8.856;2022-11-20T08:18:09;12.27;;;7.00;;
31206;SDS011;17834;52.992;8.856;2022-11-20T08:20:36;15.50;;;8.63;;
31206;SDS011;17834;52.992;8.856;2022-11-20T08:23:03;17.08;;;7.28;;
31206;SDS011;17834;52.992;8.856;2022-11-20T08:25:33;14.48;;;6.78;;
31206;SDS011;17834;52.992;8.856;2022-11-20T08:28:01;15.05;;;7.82;;
31206;SDS011;17834;52.992;8.856;2022-11-20T08:30:27;21.30;;;9.27;;
31206;SDS011;17834;52.992;8.856;2022-11-20T08:32:53;14.38;;;7.97;;
31206;SDS011;17834;52.992;8.856;2022-11-20T08:35:23;19.00;;;8.45;;
31206;SDS011;17834;52.992;8.856;2022-11-20T08:37:49;16.38;;;7.97;;
31206;SDS011;17834;52.992;8.856;2022-11-20T08:40:15;16.38;;;7.72;;
31206;SDS011;17834;52.992;8.856;2022-11-20T08:42:48;15.90;;;8.40;;
31206;SDS011;17834;52.992;8.856;2022-11-20T08:45:14;14.85;;;7.75;;
31206;SDS011;17834;52.992;8.856;2022-11-20T08:47:40;16.10;;;7.57;;
31206;SDS011;17834;52.992;8.856;2022-11-20T08:50:07;15.05;;;7.90;;
31206;SDS011;17834;52.992;8.856;2022-11-20T08:52:33;16.70;;;7.30;;
31206;SDS011;17834;52.992;8.856;2022-11-20T08:54:59;16.08;;;8.10;;
31206;SDS011;17834;52.992;8.856;2022-11-20T08:57:25;15.45;;;7.68;;
31206;SDS011;17834;52.992;8.856;2022-11-20T08:59:51;15.10;;;7.72;;
31206;SDS011;17834;52.992;8.856;2022-11-20T09:02:17;16.80;;;8.40;;
31206;SDS011;17834;52.992;8.856;2022-11-20T09:04:43;14.77;;;7.55;;
31206;SDS011;17834;52.992;8.856;2022-11-20T09:07:09;15.18;;;7.90;;
31206;SDS011;17834;52.992;8.856;2022-11-20T09:09:35;16.13;;;7.63;;
31206;SDS011;17834;52.992;8.856;2022-11-20T09:12:01;12.45;;;7.40;;
31206;SDS011;17834;52.992;8.856;2022-11-20T09:14:27;16.10;;;7.80;;
31206;SDS011;17834;52.992;8.856;2022-11-20T09:16:55;12.20;;;6.43;;
31206;SDS011;17834;52.992;8.856;2022-11-20T09:19:21;16.63;;;8.02;;
31206;SDS011;17834;52.992;8.856;2022-11-20T09:21:49;11.63;;;7.22;;
31206;SDS011;17834;52.992;8.856;2022-11-20T09:24:15;14.52;;;7.78;;
31206;SDS011;17834;52.992;8.856;2022-11-20T09:26:41;15.73;;;7.53;;
31206;SDS011;17834;52.992;8.856;2022-11-20T09:29:07;14.05;;;7.45;;
31206;SDS011;17834;52.992;8.856;2022-11-20T09:31:33;19.38;;;8.10;;
31206;SDS011;17834;52.992;8.856;2022-11-20T09:33:59;15.73;;;7.70;;
31206;SDS011;17834;52.992;8.856;2022-11-20T09:36:25;17.10;;;7.30;;
31206;SDS011;17834;52.992;8.856;2022-11-20T09:38:51;14.43;;;7.15;;
31206;SDS011;17834;52.992;8.856;2022-11-20T09:41:51;13.75;;;7.38;;
31206;SDS011;17834;52.992;8.856;2022-11-20T09:46:58;13.23;;;6.78;;
31206;SDS011;17834;52.992;8.856;2022-11-20T09:52:01;12.82;;;6.95;;
31206;SDS011;17834;52.992;8.856;2022-11-20T09:54:31;15.07;;;6.55;;
31206;SDS011;17834;52.992;8.856;2022-11-20T09:56:59;15.98;;;7.25;;
31206;SDS011;17834;52.992;8.856;2022-11-20T09:59:36;13.88;;;7.90;;
31206;SDS011;17834;52.992;8.856;2022-11-20T10:04:48;13.85;;;6.55;;
31206;SDS011;17834;52.992;8.856;2022-11-20T10:07:17;14.35;;;6.82;;
31206;SDS011;17834;52.992;8.856;2022-11-20T10:09:50;13.18;;;6.85;;
31206;SDS011;17834;52.992;8.856;2022-11-20T10:12:25;14.75;;;7.68;;
31206;SDS011;17834;52.992;8.856;2022-11-20T10:17:28;12.63;;;6.55;;
31206;SDS011;17834;52.992;8.856;2022-11-20T10:25:06;14.50;;;8.43;;
31206;SDS011;17834;52.992;8.856;2022-11-20T10:32:34;12.70;;;6.63;;
31206;SDS011;17834;52.992;8.856;2022-11-20T10:35:04;17.40;;;7.70;;
31206;SDS011;17834;52.992;8.856;2022-11-20T10:37:34;16.08;;;8.25;;
31206;SDS011;17834;52.992;8.856;2022-11-20T10:40:18;15.60;;;7.45;;
31206;SDS011;17834;52.992;8.856;2022-11-20T10:42:49;19.77;;;7.57;;
31206;SDS011;17834;52.992;8.856;2022-11-20T10:47:56;14.68;;;7.63;;
31206;SDS011;17834;52.992;8.856;2022-11-20T10:50:26;13.05;;;6.70;;
31206;SDS011;17834;52.992;8.856;2022-11-20T10:52:57;15.35;;;8.30;;
31206;SDS011;17834;52.992;8.856;2022-11-20T11:00:38;13.82;;;7.53;;
31206;SDS011;17834;52.992;8.856;2022-11-20T11:03:13;14.85;;;7.75;;
31206;SDS011;17834;52.992;8.856;2022-11-20T11:05:41;17.35;;;8.32;;
31206;SDS011;17834;52.992;8.856;2022-11-20T11:08:14;14.57;;;7.43;;
31206;SDS011;17834;52.992;8.856;2022-11-20T11:10:50;12.40;;;7.53;;
31206;SDS011;17834;52.992;8.856;2022-11-20T11:15:46;16.67;;;8.52;;
31206;SDS011;17834;52.992;8.856;2022-11-20T11:18:22;14.88;;;8.20;;
31206;SDS011;17834;52.992;8.856;2022-11-20T11:23:22;16.27;;;7.05;;
31206;SDS011;17834;52.992;8.856;2022-11-20T11:25:58;16.08;;;7.65;;
31206;SDS011;17834;52.992;8.856;2022-11-20T11:28:25;12.52;;;6.88;;
31206;SDS011;17834;52.992;8.856;2022-11-20T11:30:52;14.90;;;7.55;;
31206;SDS011;17834;52.992;8.856;2022-11-20T11:33:28;16.38;;;8.18;;
31206;SDS011;17834;52.992;8.856;2022-11-20T11:35:59;15.38;;;7.75;;
31206;SDS011;17834;52.992;8.856;2022-11-20T11:38:32;15.73;;;7.20;;
31206;SDS011;17834;52.992;8.856;2022-11-20T11:41:00;16.60;;;8.05;;
31206;SDS011;17834;52.992;8.856;2022-11-20T11:43:28;17.38;;;8.43;;
31206;SDS011;17834;52.992;8.856;2022-11-20T11:48:56;13.02;;;8.00;;
31206;SDS011;17834;52.992;8.856;2022-11-20T11:51:24;16.13;;;8.25;;
31206;SDS011;17834;52.992;8.856;2022-11-20T11:53:51;18.27;;;8.00;;
31206;SDS011;17834;52.992;8.856;2022-11-20T11:56:18;15.02;;;7.70;;
31206;SDS011;17834;52.992;8.856;2022-11-20T11:58:47;13.60;;;7.70;;
31206;SDS011;17834;52.992;8.856;2022-11-20T12:04:14;12.68;;;6.60;;
31206;SDS011;17834;52.992;8.856;2022-11-20T12:06:43;9.57;;;5.60;;
31206;SDS011;17834;52.992;8.856;2022-11-20T12:09:10;12.93;;;6.47;;
31206;SDS011;17834;52.992;8.856;2022-11-20T12:14:25;11.55;;;6.50;;
31206;SDS011;17834;52.992;8.856;2022-11-20T12:16:53;13.00;;;6.82;;
31206;SDS011;17834;52.992;8.856;2022-11-20T12:19:29;12.20;;;7.00;;
31206;SDS011;17834;52.992;8.856;2022-11-20T12:25:02;13.77;;;7.53;;
31206;SDS011;17834;52.992;8.856;2022-11-20T12:27:42;13.77;;;7.50;;
31206;SDS011;17834;52.992;8.856;2022-11-20T12:32:40;15.57;;;7.45;;
31206;SDS011;17834;52.992;8.856;2022-11-20T12:35:18;23.70;;;13.10;;
31206;SDS011;17834;52.992;8.856;2022-11-20T12:37:53;21.23;;;10.48;;
31206;SDS011;17834;52.992;8.856;2022-11-20T12:50:51;16.08;;;7.00;;
31206;SDS011;17834;52.992;8.856;2022-11-20T12:58:21;11.15;;;6.57;;
31206;SDS011;17834;52.992;8.856;2022-11-20T13:00:58;10.82;;;6.78;;
31206;SDS011;17834;52.992;8.856;2022-11-20T13:03:31;14.55;;;6.90;;
31206;SDS011;17834;52.992;8.856;2022-11-20T13:06:05;13.15;;;6.78;;
31206;SDS011;17834;52.992;8.856;2022-11-20T13:08:37;14.77;;;7.47;;
31206;SDS011;17834;52.992;8.856;2022-11-20T13:16:24;15.68;;;7.25;;
31206;SDS011;17834;52.992;8.856;2022-11-20T13:18:51;14.45;;;7.85;;
31206;SDS011;17834;52.992;8.856;2022-11-20T13:21:18;11.73;;;7.00;;
31206;SDS011;17834;52.992;8.856;2022-11-20T13:23:46;16.25;;;8.10;;
31206;SDS011;17834;52.992;8.856;2022-11-20T13:28:45;14.48;;;7.57;;
31206;SDS011;17834;52.992;8.856;2022-11-20T13:31:31;23.90;;;10.45;;
31206;SDS011;17834;52.992;8.856;2022-11-20T13:33:57;16.35;;;7.82;;
31206;SDS011;17834;52.992;8.856;2022-11-20T13:36:26;12.15;;;6.80;;
31206;SDS011;17834;52.992;8.856;2022-11-20T13:38:54;14.48;;;7.47;;
31206;SDS011;17834;52.992;8.856;2022-11-20T13:41:30;15.38;;;7.72;;
31206;SDS011;17834;52.992;8.856;2022-11-20T13:43:59;17.45;;;8.07;;
31206;SDS011;17834;52.992;8.856;2022-11-20T13:46:43;20.50;;;8.27;;
31206;SDS011;17834;52.992;8.856;2022-11-20T13:49:16;14.90;;;7.82;;
31206;SDS011;17834;52.992;8.856;2022-11-20T13:51:43;17.25;;;8.40;;
31206;SDS011;17834;52.992;8.856;2022-11-20T13:54:17;21.20;;;10.55;;
31206;SDS011;17834;52.992;8.856;2022-11-20T13:59:52;19.55;;;9.85;;
31206;SDS011;17834;52.992;8.856;2022-11-20T14:02:18;17.67;;;8.90;;
31206;SDS011;17834;52.992;8.856;2022-11-20T14:04:46;15.20;;;7.85;;
31206;SDS011;17834;52.992;8.856;2022-11-20T14:07:13;20.80;;;9.02;;
31206;SDS011;17834;52.992;8.856;2022-11-20T14:09:48;17.80;;;9.23;;
31206;SDS011;17834;52.992;8.856;2022-11-20T14:12:15;17.25;;;8.85;;
31206;SDS011;17834;52.992;8.856;2022-11-20T14:14:52;19.55;;;8.77;;
31206;SDS011;17834;52.992;8.856;2022-11-20T14:19:54;19.33;;;8.20;;
31206;SDS011;17834;52.992;8.856;2022-11-20T14:22:22;17.77;;;7.90;;
31206;SDS011;17834;52.992;8.856;2022-11-20T14:24:49;18.85;;;8.95;;
31206;SDS011;17834;52.992;8.856;2022-11-20T14:27:16;16.00;;;7.78;;
31206;SDS011;17834;52.992;8.856;2022-11-20T14:29:43;19.95;;;8.80;;
31206;SDS011;17834;52.992;8.856;2022-11-20T14:32:09;20.00;;;9.57;;
31206;SDS011;17834;52.992;8.856;2022-11-20T14:34:37;18.45;;;9.13;;
31206;SDS011;17834;52.992;8.856;2022-11-20T14:37:04;21.00;;;9.82;;
31206;SDS011;17834;52.992;8.856;2022-11-20T14:39:32;17.02;;;9.88;;
31206;SDS011;17834;52.992;8.856;2022-11-20T14:41:58;18.08;;;9.15;;
31206;SDS011;17834;52.992;8.856;2022-11-20T14:44:29;20.40;;;10.43;;
31206;SDS011;17834;52.992;8.856;2022-11-20T14:46:56;19.30;;;9.68;;
31206;SDS011;17834;52.992;8.856;2022-11-20T14:49:22;17.55;;;9.50;;
31206;SDS011;17834;52.992;8.856;2022-11-20T14:51:57;21.60;;;10.20;;
31206;SDS011;17834;52.992;8.856;2022-11-20T14:54:24;18.70;;;9.82;;
31206;SDS011;17834;52.992;8.856;2022-11-20T14:59:25;21.23;;;11.32;;
31206;SDS011;17834;52.992;8.856;2022-11-20T15:01:55;28.35;;;11.75;;
31206;SDS011;17834;52.992;8.856;2022-11-20T15:04:22;21.13;;;10.10;;
31206;SDS011;17834;52.992;8.856;2022-11-20T15:06:49;17.55;;;9.50;;
31206;SDS011;17834;52.992;8.856;2022-11-20T15:09:15;20.65;;;9.15;;
31206;SDS011;17834;52.992;8.856;2022-11-20T15:11:50;17.13;;;8.68;;
31206;SDS011;17834;52.992;8.856;2022-11-20T15:14:17;20.80;;;9.18;;
31206;SDS011;17834;52.992;8.856;2022-11-20T15:16:43;18.77;;;8.52;;
31206;SDS011;17834;52.992;8.856;2022-11-20T15:19:15;15.85;;;8.05;;
31206;SDS011;17834;52.992;8.856;2022-11-20T15:21:42;22.05;;;10.20;;
31206;SDS011;17834;52.992;8.856;2022-11-20T15:24:09;18.80;;;9.57;;
31206;SDS011;17834;52.992;8.856;2022-11-20T15:26:35;17.58;;;9.45;;
31206;SDS011;17834;52.992;8.856;2022-11-20T15:29:04;22.67;;;8.48;;
31206;SDS011;17834;52.992;8.856;2022-11-20T15:31:30;19.33;;;10.13;;
31206;SDS011;17834;52.992;8.856;2022-11-20T15:33:56;21.92;;;11.30;;
31206;SDS011;17834;52.992;8.856;2022-11-20T15:36:22;20.88;;;11.88;;
31206;SDS011;17834;52.992;8.856;2022-11-20T15:38:49;20.20;;;11.07;;
31206;SDS011;17834;52.992;8.856;2022-11-20T15:41:15;20.52;;;10.63;;
31206;SDS011;17834;52.992;8.856;2022-11-20T15:43:41;19.95;;;10.75;;
31206;SDS011;17834;52.992;8.856;2022-11-20T15:46:14;22.65;;;11.50;;
31206;SDS011;17834;52.992;8.856;2022-11-20T15:48:42;21.50;;;12.10;;
31206;SDS011;17834;52.992;8.856;2022-11-20T15:53:38;20.00;;;10.10;;
31206;SDS011;17834;52.992;8.856;2022-11-20T15:56:05;21.52;;;10.23;;
31206;SDS011;17834;52.992;8.856;2022-11-20T15:58:31;21.35;;;10.90;;
31206;SDS011;17834;52.992;8.856;2022-11-20T16:00:57;26.02;;;13.32;;
31206;SDS011;17834;52.992;8.856;2022-11-20T16:03:23;22.88;;;11.27;;
31206;SDS011;17834;52.992;8.856;2022-11-20T16:05:49;22.92;;;10.10;;